sensor_id;sensor_type;location;lat;lon;timestamp;pressure;altitude;pressure_sealevel;temperature;humidity
9717;BME280;4897;43.570;27.832;2023-02-04T00:02:26;98871.06;;;1.14;100.00
9717;BME280;4897;43.570;27.832;2023-02-04T00:04:53;98861.88;;;1.06;100.00
9717;BME280;4897;43.570;27.832;2023-02-04T00:07:21;98815.91;;;0.78;100.00
9717;BME280;4897;43.570;27.832;2023-02-04T00:09:48;98850.16;;;1.11;100.00
9717;BME280;4897;43.570;27.832;2023-02-04T00:12:15;98857.06;;;1.14;100.00
9717;BME280;4897;43.570;27.832;2023-02-04T00:14:42;98857.16;;;1.12;100.00
9717;BME280;4897;43.570;27.832;2023-02-04T00:17:09;98846.44;;;1.15;100.00
9717;BME280;4897;43.570;27.832;2023-02-04T00:19:38;98845.44;;;1.18;100.00
9717;BME280;4897;43.570;27.832;2023-02-04T00:22:04;98851.34;;;1.06;100.00
9717;BME280;4897;43.570;27.832;2023-02-04T00:24:34;98833.22;;;1.00;100.00
9717;BME280;4897;43.570;27.832;2023-02-04T00:27:01;98852.88;;;1.10;100.00
9717;BME280;4897;43.570;27.832;2023-02-04T00:29:28;98836.84;;;0.97;100.00
9717;BME280;4897;43.570;27.832;2023-02-04T00:31:55;98845.38;;;1.02;100.00
9717;BME280;4897;43.570;27.832;2023-02-04T00:34:22;98848.56;;;0.92;100.00
9717;BME280;4897;43.570;27.832;2023-02-04T00:36:49;98839.53;;;1.13;100.00
9717;BME280;4897;43.570;27.832;2023-02-04T00:39:16;98835.38;;;1.09;100.00
9717;BME280;4897;43.570;27.832;2023-02-04T00:41:47;98829.16;;;1.27;100.00
9717;BME280;4897;43.570;27.832;2023-02-04T00:44:14;98828.84;;;1.33;100.00
9717;BME280;4897;43.570;27.832;2023-02-04T00:46:41;98815.16;;;1.42;100.00
9717;BME280;4897;43.570;27.832;2023-02-04T00:49:08;98801.16;;;1.41;100.00
9717;BME280;4897;43.570;27.832;2023-02-04T00:51:37;98784.34;;;1.44;100.00
9717;BME280;4897;43.570;27.832;2023-02-04T00:54:04;98819.28;;;1.63;100.00
9717;BME280;4897;43.570;27.832;2023-02-04T00:56:31;98787.75;;;1.46;100.00
9717;BME280;4897;43.570;27.832;2023-02-04T00:59:00;98815.81;;;1.63;100.00
9717;BME280;4897;43.570;27.832;2023-02-04T01:01:27;98820.50;;;1.73;100.00
9717;BME280;4897;43.570;27.832;2023-02-04T01:03:55;98814.94;;;1.78;100.00
9717;BME280;4897;43.570;27.832;2023-02-04T01:06:22;98810.53;;;1.78;100.00
9717;BME280;4897;43.570;27.832;2023-02-04T01:08:48;98805.53;;;1.89;100.00
9717;BME280;4897;43.570;27.832;2023-02-04T01:11:15;98798.47;;;1.90;100.00
9717;BME280;4897;43.570;27.832;2023-02-04T01:13:42;98775.50;;;1.76;100.00
9717;BME280;4897;43.570;27.832;2023-02-04T01:16:11;98757.25;;;1.73;100.00
9717;BME280;4897;43.570;27.832;2023-02-04T01:18:38;98795.56;;;2.10;100.00
9717;BME280;4897;43.570;27.832;2023-02-04T01:21:05;98788.72;;;2.21;100.00
9717;BME280;4897;43.570;27.832;2023-02-04T01:23:32;98747.59;;;2.03;100.00
9717;BME280;4897;43.570;27.832;2023-02-04T01:25:58;98778.78;;;2.26;100.00
9717;BME280;4897;43.570;27.832;2023-02-04T01:28:25;98782.03;;;2.31;100.00
9717;BME280;4897;43.570;27.832;2023-02-04T01:30:52;98762.59;;;2.32;100.00
9717;BME280;4897;43.570;27.832;2023-02-04T01:33:20;98761.69;;;2.33;100.00
9717;BME280;4897;43.570;27.832;2023-02-04T01:35:48;98765.84;;;2.37;100.00
9717;BME280;4897;43.570;27.832;2023-02-04T01:38:14;98741.81;;;2.12;100.00
9717;BME280;4897;43.570;27.832;2023-02-04T01:40:42;98761.84;;;2.30;100.00
9717;BME280;4897;43.570;27.832;2023-02-04T01:43:09;98747.88;;;2.28;100.00
9717;BME280;4897;43.570;27.832;2023-02-04T01:45:37;98756.81;;;2.41;100.00
9717;BME280;4897;43.570;27.832;2023-02-04T01:48:08;98758.75;;;2.38;100.00
9717;BME280;4897;43.570;27.832;2023-02-04T01:50:38;98752.16;;;2.31;100.00
9717;BME280;4897;43.570;27.832;2023-02-04T01:53:05;98750.88;;;2.22;100.00
9717;BME280;4897;43.570;27.832;2023-02-04T01:55:32;98751.53;;;2.26;100.00
9717;BME280;4897;43.570;27.832;2023-02-04T01:57:59;98730.25;;;1.99;100.00
9717;BME280;4897;43.570;27.832;2023-02-04T02:00:29;98752.84;;;2.19;100.00
9717;BME280;4897;43.570;27.832;2023-02-04T02:02:57;98759.47;;;2.26;100.00
9717;BME280;4897;43.570;27.832;2023-02-04T02:05:28;98721.91;;;2.07;100.00
9717;BME280;4897;43.570;27.832;2023-02-04T02:07:59;98733.50;;;2.04;100.00
9717;BME280;4897;43.570;27.832;2023-02-04T02:10:27;98732.13;;;1.97;100.00
9717;BME280;4897;43.570;27.832;2023-02-04T02:12:54;98738.41;;;1.95;100.00
9717;BME280;4897;43.570;27.832;2023-02-04T02:15:22;98748.56;;;2.02;100.00
9717;BME280;4897;43.570;27.832;2023-02-04T02:17:49;98740.28;;;1.93;100.00
9717;BME280;4897;43.570;27.832;2023-02-04T02:20:17;98746.53;;;1.92;100.00
9717;BME280;4897;43.570;27.832;2023-02-04T02:22:55;98741.09;;;1.79;100.00
9717;BME280;4897;43.570;27.832;2023-02-04T02:25:24;98731.38;;;1.80;100.00
9717;BME280;4897;43.570;27.832;2023-02-04T02:27:51;98721.88;;;1.77;100.00
9717;BME280;4897;43.570;27.832;2023-02-04T02:30:19;98724.56;;;1.76;100.00
9717;BME280;4897;43.570;27.832;2023-02-04T02:32:46;98681.94;;;1.53;100.00
9717;BME280;4897;43.570;27.832;2023-02-04T02:35:14;98713.78;;;1.80;100.00
9717;BME280;4897;43.570;27.832;2023-02-04T02:37:41;98708.34;;;1.83;100.00
9717;BME280;4897;43.570;27.832;2023-02-04T02:40:09;98700.25;;;1.86;100.00
9717;BME280;4897;43.570;27.832;2023-02-04T02:42:38;98700.03;;;1.75;100.00
9717;BME280;4897;43.570;27.832;2023-02-04T02:45:11;98691.00;;;1.79;100.00
9717;BME280;4897;43.570;27.832;2023-02-04T02:47:39;98689.09;;;1.97;100.00
9717;BME280;4897;43.570;27.832;2023-02-04T02:50:07;98690.44;;;2.04;100.00
9717;BME280;4897;43.570;27.832;2023-02-04T02:52:38;98682.44;;;2.05;100.00
9717;BME280;4897;43.570;27.832;2023-02-04T02:55:12;98686.69;;;2.08;100.00
9717;BME280;4897;43.570;27.832;2023-02-04T02:57:41;98679.94;;;2.18;100.00
9717;BME280;4897;43.570;27.832;2023-02-04T03:00:13;98650.63;;;2.08;100.00
9717;BME280;4897;43.570;27.832;2023-02-04T03:02:40;98689.38;;;2.22;100.00
9717;BME280;4897;43.570;27.832;2023-02-04T03:05:08;98575.22;;;1.76;100.00
9717;BME280;4897;43.570;27.832;2023-02-04T03:07:35;98647.63;;;2.14;100.00
9717;BME280;4897;43.570;27.832;2023-02-04T03:10:02;98648.31;;;2.32;100.00
9717;BME280;4897;43.570;27.832;2023-02-04T03:12:30;98648.81;;;2.38;100.00
9717;BME280;4897;43.570;27.832;2023-02-04T03:14:58;98634.69;;;2.39;100.00
9717;BME280;4897;43.570;27.832;2023-02-04T03:17:25;98649.38;;;2.58;100.00
9717;BME280;4897;43.570;27.832;2023-02-04T03:19:52;98643.72;;;2.64;100.00
9717;BME280;4897;43.570;27.832;2023-02-04T03:22:19;98641.56;;;2.70;100.00
9717;BME280;4897;43.570;27.832;2023-02-04T03:24:45;98637.22;;;2.69;100.00
9717;BME280;4897;43.570;27.832;2023-02-04T03:27:13;98623.94;;;2.42;100.00
9717;BME280;4897;43.570;27.832;2023-02-04T03:29:42;98646.91;;;2.40;100.00
9717;BME280;4897;43.570;27.832;2023-02-04T03:32:11;98596.56;;;2.01;100.00
9717;BME280;4897;43.570;27.832;2023-02-04T03:34:38;98636.25;;;2.28;100.00
9717;BME280;4897;43.570;27.832;2023-02-04T03:37:04;98630.97;;;2.28;100.00
9717;BME280;4897;43.570;27.832;2023-02-04T03:39:31;98535.69;;;1.76;100.00
9717;BME280;4897;43.570;27.832;2023-02-04T03:41:58;98622.19;;;2.13;100.00
9717;BME280;4897;43.570;27.832;2023-02-04T03:44:25;98622.13;;;2.29;100.00
9717;BME280;4897;43.570;27.832;2023-02-04T03:46:52;98615.09;;;2.29;100.00
9717;BME280;4897;43.570;27.832;2023-02-04T03:49:21;98613.16;;;2.17;100.00
9717;BME280;4897;43.570;27.832;2023-02-04T03:51:48;98603.28;;;2.21;100.00
9717;BME280;4897;43.570;27.832;2023-02-04T03:54:15;98599.03;;;2.18;100.00
9717;BME280;4897;43.570;27.832;2023-02-04T03:56:42;98578.09;;;2.01;100.00
9717;BME280;4897;43.570;27.832;2023-02-04T03:59:08;98595.31;;;2.07;100.00
9717;BME280;4897;43.570;27.832;2023-02-04T04:01:35;98594.41;;;2.08;100.00
9717;BME280;4897;43.570;27.832;2023-02-04T04:04:02;98531.69;;;1.69;100.00
9717;BME280;4897;43.570;27.832;2023-02-04T04:06:30;98571.47;;;1.94;100.00
9717;BME280;4897;43.570;27.832;2023-02-04T04:08:57;98574.31;;;1.91;100.00
9717;BME280;4897;43.570;27.832;2023-02-04T04:11:24;98572.25;;;1.96;100.00
9717;BME280;4897;43.570;27.832;2023-02-04T04:13:51;98567.44;;;2.03;100.00
9717;BME280;4897;43.570;27.832;2023-02-04T04:16:17;98537.09;;;1.82;100.00
9717;BME280;4897;43.570;27.832;2023-02-04T04:18:45;98559.25;;;1.93;100.00
9717;BME280;4897;43.570;27.832;2023-02-04T04:21:11;98548.50;;;1.82;100.00
9717;BME280;4897;43.570;27.832;2023-02-04T04:23:40;98569.81;;;1.93;100.00
9717;BME280;4897;43.570;27.832;2023-02-04T04:26:06;98556.63;;;1.93;100.00
9717;BME280;4897;43.570;27.832;2023-02-04T04:28:33;98563.88;;;1.90;100.00
9717;BME280;4897;43.570;27.832;2023-02-04T04:31:00;98519.47;;;1.68;100.00
9717;BME280;4897;43.570;27.832;2023-02-04T04:33:27;98560.06;;;1.80;100.00
9717;BME280;4897;43.570;27.832;2023-02-04T04:35:54;98551.09;;;1.68;100.00
9717;BME280;4897;43.570;27.832;2023-02-04T04:38:23;98555.25;;;1.72;100.00
9717;BME280;4897;43.570;27.832;2023-02-04T04:40:52;98548.25;;;1.57;100.00
9717;BME280;4897;43.570;27.832;2023-02-04T04:43:19;98537.31;;;1.49;100.00
9717;BME280;4897;43.570;27.832;2023-02-04T04:45:45;98544.53;;;1.45;100.00
9717;BME280;4897;43.570;27.832;2023-02-04T04:48:12;98542.06;;;1.42;100.00
9717;BME280;4897;43.570;27.832;2023-02-04T04:50:39;98525.59;;;1.39;100.00
9717;BME280;4897;43.570;27.832;2023-02-04T04:53:06;98535.38;;;1.37;100.00
9717;BME280;4897;43.570;27.832;2023-02-04T04:55:35;98535.88;;;1.43;100.00
9717;BME280;4897;43.570;27.832;2023-02-04T04:58:04;98471.31;;;1.07;100.00
9717;BME280;4897;43.570;27.832;2023-02-04T05:00:31;98535.53;;;1.49;100.00
9717;BME280;4897;43.570;27.832;2023-02-04T05:02:58;98557.25;;;1.53;100.00
9717;BME280;4897;43.570;27.832;2023-02-04T05:05:25;98529.03;;;1.55;100.00
9717;BME280;4897;43.570;27.832;2023-02-04T05:07:52;98516.81;;;1.54;100.00
9717;BME280;4897;43.570;27.832;2023-02-04T05:10:19;98515.31;;;1.50;100.00
9717;BME280;4897;43.570;27.832;2023-02-04T05:12:46;98524.47;;;1.58;100.00
9717;BME280;4897;43.570;27.832;2023-02-04T05:15:14;98519.47;;;1.54;100.00
9717;BME280;4897;43.570;27.832;2023-02-04T05:17:41;98518.53;;;1.69;100.00
9717;BME280;4897;43.570;27.832;2023-02-04T05:20:09;98520.88;;;1.59;100.00
9717;BME280;4897;43.570;27.832;2023-02-04T05:22:36;98514.22;;;1.68;100.00
9717;BME280;4897;43.570;27.832;2023-02-04T05:25:03;98509.09;;;1.65;100.00
9717;BME280;4897;43.570;27.832;2023-02-04T05:27:29;98500.84;;;1.71;100.00
9717;BME280;4897;43.570;27.832;2023-02-04T05:29:56;98491.53;;;1.66;100.00
9717;BME280;4897;43.570;27.832;2023-02-04T05:32:24;98504.06;;;1.76;100.00
9717;BME280;4897;43.570;27.832;2023-02-04T05:34:51;98482.97;;;1.62;100.00
9717;BME280;4897;43.570;27.832;2023-02-04T05:37:18;98492.94;;;1.71;100.00
9717;BME280;4897;43.570;27.832;2023-02-04T05:39:45;98471.09;;;1.69;100.00
9717;BME280;4897;43.570;27.832;2023-02-04T05:42:12;98488.63;;;1.84;100.00
9717;BME280;4897;43.570;27.832;2023-02-04T05:44:39;98493.91;;;1.84;100.00
9717;BME280;4897;43.570;27.832;2023-02-04T05:47:06;98491.00;;;1.89;100.00
9717;BME280;4897;43.570;27.832;2023-02-04T05:49:34;98493.53;;;1.90;100.00
9717;BME280;4897;43.570;27.832;2023-02-04T05:52:01;98483.84;;;1.91;100.00
9717;BME280;4897;43.570;27.832;2023-02-04T05:54:28;98499.84;;;1.88;100.00
9717;BME280;4897;43.570;27.832;2023-02-04T05:56:55;98488.72;;;1.83;100.00
9717;BME280;4897;43.570;27.832;2023-02-04T05:59:22;98494.59;;;1.88;100.00
9717;BME280;4897;43.570;27.832;2023-02-04T06:01:48;98488.94;;;1.94;100.00
9717;BME280;4897;43.570;27.832;2023-02-04T06:04:15;98479.22;;;1.94;100.00
9717;BME280;4897;43.570;27.832;2023-02-04T06:06:43;98465.66;;;1.86;100.00
9717;BME280;4897;43.570;27.832;2023-02-04T06:09:11;98478.84;;;2.00;100.00
9717;BME280;4897;43.570;27.832;2023-02-04T06:11:38;98489.22;;;2.03;100.00
9717;BME280;4897;43.570;27.832;2023-02-04T06:14:04;98474.41;;;2.01;100.00
9717;BME280;4897;43.570;27.832;2023-02-04T06:16:31;98489.03;;;2.06;100.00
9717;BME280;4897;43.570;27.832;2023-02-04T06:18:58;98488.19;;;2.06;100.00
9717;BME280;4897;43.570;27.832;2023-02-04T06:21:25;98480.66;;;2.14;100.00
9717;BME280;4897;43.570;27.832;2023-02-04T06:23:53;98483.94;;;2.03;100.00
9717;BME280;4897;43.570;27.832;2023-02-04T06:26:20;98467.75;;;1.95;100.00
9717;BME280;4897;43.570;27.832;2023-02-04T06:28:47;98490.50;;;1.96;100.00
9717;BME280;4897;43.570;27.832;2023-02-04T06:31:14;98486.25;;;1.80;100.00
9717;BME280;4897;43.570;27.832;2023-02-04T06:33:40;98485.44;;;1.79;100.00
9717;BME280;4897;43.570;27.832;2023-02-04T06:36:07;98467.06;;;1.63;100.00
9717;BME280;4897;43.570;27.832;2023-02-04T06:38:34;98486.16;;;1.67;100.00
9717;BME280;4897;43.570;27.832;2023-02-04T06:41:02;98489.00;;;1.64;100.00
9717;BME280;4897;43.570;27.832;2023-02-04T06:43:29;98486.16;;;1.67;100.00
9717;BME280;4897;43.570;27.832;2023-02-04T06:45:56;98486.72;;;1.58;100.00
9717;BME280;4897;43.570;27.832;2023-02-04T06:48:23;98490.84;;;1.48;100.00
9717;BME280;4897;43.570;27.832;2023-02-04T06:50:50;98485.97;;;1.56;100.00
9717;BME280;4897;43.570;27.832;2023-02-04T06:53:16;98480.59;;;1.57;100.00
9717;BME280;4897;43.570;27.832;2023-02-04T06:55:43;98477.31;;;1.54;100.00
9717;BME280;4897;43.570;27.832;2023-02-04T06:58:12;98473.63;;;1.56;100.00
9717;BME280;4897;43.570;27.832;2023-02-04T07:00:39;98461.00;;;1.47;100.00
9717;BME280;4897;43.570;27.832;2023-02-04T07:03:05;98487.47;;;1.60;100.00
9717;BME280;4897;43.570;27.832;2023-02-04T07:05:32;98476.09;;;1.59;100.00
9717;BME280;4897;43.570;27.832;2023-02-04T07:07:59;98455.34;;;1.39;100.00
9717;BME280;4897;43.570;27.832;2023-02-04T07:10:26;98466.00;;;1.52;100.00
9717;BME280;4897;43.570;27.832;2023-02-04T07:12:53;98476.25;;;1.56;100.00
9717;BME280;4897;43.570;27.832;2023-02-04T07:15:21;98465.91;;;1.53;100.00
9717;BME280;4897;43.570;27.832;2023-02-04T07:17:48;98391.66;;;1.33;100.00
9717;BME280;4897;43.570;27.832;2023-02-04T07:20:16;98473.84;;;1.82;100.00
9717;BME280;4897;43.570;27.832;2023-02-04T07:22:42;98473.94;;;1.94;100.00
9717;BME280;4897;43.570;27.832;2023-02-04T07:25:09;98444.50;;;1.88;100.00
9717;BME280;4897;43.570;27.832;2023-02-04T07:27:39;98465.88;;;1.97;100.00
9717;BME280;4897;43.570;27.832;2023-02-04T07:30:07;98470.38;;;1.95;100.00
9717;BME280;4897;43.570;27.832;2023-02-04T07:32:36;98457.69;;;2.02;100.00
9717;BME280;4897;43.570;27.832;2023-02-04T07:35:03;98460.97;;;2.05;100.00
9717;BME280;4897;43.570;27.832;2023-02-04T07:37:30;98462.47;;;2.09;100.00
9717;BME280;4897;43.570;27.832;2023-02-04T07:39:57;98449.66;;;1.89;100.00
9717;BME280;4897;43.570;27.832;2023-02-04T07:42:24;98451.34;;;1.90;100.00
9717;BME280;4897;43.570;27.832;2023-02-04T07:44:51;98457.00;;;2.12;100.00
9717;BME280;4897;43.570;27.832;2023-02-04T07:47:18;98450.97;;;2.24;100.00
9717;BME280;4897;43.570;27.832;2023-02-04T07:49:46;98446.41;;;2.40;100.00
9717;BME280;4897;43.570;27.832;2023-02-04T07:52:13;98453.38;;;2.56;100.00
9717;BME280;4897;43.570;27.832;2023-02-04T07:54:39;98445.84;;;2.50;100.00
9717;BME280;4897;43.570;27.832;2023-02-04T07:57:07;98449.69;;;2.58;100.00
9717;BME280;4897;43.570;27.832;2023-02-04T07:59:34;98442.69;;;2.57;100.00
9717;BME280;4897;43.570;27.832;2023-02-04T08:02:00;98409.16;;;2.59;100.00
9717;BME280;4897;43.570;27.832;2023-02-04T08:04:27;98432.72;;;2.89;100.00
9717;BME280;4897;43.570;27.832;2023-02-04T08:06:55;98434.41;;;2.90;100.00
9717;BME280;4897;43.570;27.832;2023-02-04T08:09:22;98431.09;;;3.13;100.00
9717;BME280;4897;43.570;27.832;2023-02-04T08:11:51;98428.13;;;3.17;100.00
9717;BME280;4897;43.570;27.832;2023-02-04T08:14:18;98417.34;;;3.08;100.00
9717;BME280;4897;43.570;27.832;2023-02-04T08:16:45;98423.31;;;2.85;100.00
9717;BME280;4897;43.570;27.832;2023-02-04T08:19:12;98429.88;;;2.92;100.00
9717;BME280;4897;43.570;27.832;2023-02-04T08:21:43;98431.78;;;2.90;100.00
9717;BME280;4897;43.570;27.832;2023-02-04T08:24:11;98428.91;;;2.93;100.00
9717;BME280;4897;43.570;27.832;2023-02-04T08:26:38;98417.09;;;2.98;100.00
9717;BME280;4897;43.570;27.832;2023-02-04T08:29:05;98425.03;;;2.98;100.00
9717;BME280;4897;43.570;27.832;2023-02-04T08:31:32;98427.47;;;3.01;100.00
9717;BME280;4897;43.570;27.832;2023-02-04T08:33:59;98428.38;;;3.14;100.00
9717;BME280;4897;43.570;27.832;2023-02-04T08:36:26;98421.47;;;3.12;100.00
9717;BME280;4897;43.570;27.832;2023-02-04T08:38:53;98427.56;;;3.39;100.00
9717;BME280;4897;43.570;27.832;2023-02-04T08:41:21;98390.31;;;3.04;100.00
9717;BME280;4897;43.570;27.832;2023-02-04T08:43:48;98418.69;;;3.53;100.00
9717;BME280;4897;43.570;27.832;2023-02-04T08:46:15;98423.34;;;3.49;100.00
9717;BME280;4897;43.570;27.832;2023-02-04T08:48:44;98399.88;;;3.45;100.00
9717;BME280;4897;43.570;27.832;2023-02-04T08:51:11;98414.88;;;3.32;100.00
9717;BME280;4897;43.570;27.832;2023-02-04T08:53:38;98415.50;;;3.35;100.00
9717;BME280;4897;43.570;27.832;2023-02-04T08:56:05;98429.88;;;3.31;100.00
9717;BME280;4897;43.570;27.832;2023-02-04T08:58:34;98415.38;;;3.24;100.00
9717;BME280;4897;43.570;27.832;2023-02-04T09:01:01;98400.69;;;3.20;100.00
9717;BME280;4897;43.570;27.832;2023-02-04T09:03:28;98405.94;;;3.07;100.00
9717;BME280;4897;43.570;27.832;2023-02-04T09:05:55;98393.28;;;3.12;100.00
9717;BME280;4897;43.570;27.832;2023-02-04T09:08:22;98414.03;;;3.44;100.00
9717;BME280;4897;43.570;27.832;2023-02-04T09:10:49;98412.34;;;3.55;100.00
9717;BME280;4897;43.570;27.832;2023-02-04T09:13:15;98411.41;;;3.81;100.00
9717;BME280;4897;43.570;27.832;2023-02-04T09:15:44;98413.31;;;3.79;100.00
9717;BME280;4897;43.570;27.832;2023-02-04T09:18:10;98397.53;;;3.78;100.00
9717;BME280;4897;43.570;27.832;2023-02-04T09:20:41;98387.81;;;3.78;100.00
9717;BME280;4897;43.570;27.832;2023-02-04T09:23:08;98402.09;;;3.88;100.00
9717;BME280;4897;43.570;27.832;2023-02-04T09:25:36;98371.91;;;4.03;100.00
9717;BME280;4897;43.570;27.832;2023-02-04T09:28:03;98393.50;;;4.10;100.00
9717;BME280;4897;43.570;27.832;2023-02-04T09:30:31;98403.34;;;3.95;100.00
9717;BME280;4897;43.570;27.832;2023-02-04T09:33:01;98388.50;;;4.18;100.00
9717;BME280;4897;43.570;27.832;2023-02-04T09:35:28;98405.59;;;3.76;100.00
9717;BME280;4897;43.570;27.832;2023-02-04T09:37:55;98403.47;;;3.56;100.00
9717;BME280;4897;43.570;27.832;2023-02-04T09:40:30;98411.50;;;3.55;100.00
9717;BME280;4897;43.570;27.832;2023-02-04T09:43:02;98398.47;;;3.27;100.00
9717;BME280;4897;43.570;27.832;2023-02-04T09:45:32;98390.69;;;3.50;100.00
9717;BME280;4897;43.570;27.832;2023-02-04T09:48:03;98380.63;;;3.43;100.00
9717;BME280;4897;43.570;27.832;2023-02-04T09:50:31;98385.06;;;3.55;100.00
9717;BME280;4897;43.570;27.832;2023-02-04T09:53:00;98395.56;;;3.81;100.00
9717;BME280;4897;43.570;27.832;2023-02-04T09:55:30;98380.19;;;3.86;100.00
9717;BME280;4897;43.570;27.832;2023-02-04T09:57:57;98378.28;;;3.88;100.00
9717;BME280;4897;43.570;27.832;2023-02-04T10:00:27;98358.50;;;4.07;100.00
9717;BME280;4897;43.570;27.832;2023-02-04T10:02:55;98371.72;;;4.07;100.00
9717;BME280;4897;43.570;27.832;2023-02-04T10:05:28;98363.84;;;4.18;100.00
9717;BME280;4897;43.570;27.832;2023-02-04T10:07:55;98379.41;;;4.10;100.00
9717;BME280;4897;43.570;27.832;2023-02-04T10:10:24;98381.56;;;4.04;100.00
9717;BME280;4897;43.570;27.832;2023-02-04T10:12:56;98352.34;;;4.06;100.00
9717;BME280;4897;43.570;27.832;2023-02-04T10:15:25;98356.47;;;4.10;100.00
9717;BME280;4897;43.570;27.832;2023-02-04T10:17:59;98357.59;;;4.19;100.00
9717;BME280;4897;43.570;27.832;2023-02-04T10:20:29;98349.78;;;4.41;100.00
9717;BME280;4897;43.570;27.832;2023-02-04T10:22:55;98363.84;;;4.18;100.00
9717;BME280;4897;43.570;27.832;2023-02-04T10:25:23;98345.03;;;4.10;100.00
9717;BME280;4897;43.570;27.832;2023-02-04T10:27:52;98349.59;;;4.44;100.00
9717;BME280;4897;43.570;27.832;2023-02-04T10:30:21;98350.59;;;4.54;100.00
9717;BME280;4897;43.570;27.832;2023-02-04T10:32:49;98346.53;;;4.84;100.00
9717;BME280;4897;43.570;27.832;2023-02-04T10:35:17;98342.66;;;5.12;100.00
9717;BME280;4897;43.570;27.832;2023-02-04T10:37:46;98344.50;;;4.88;100.00
9717;BME280;4897;43.570;27.832;2023-02-04T10:40:30;98356.00;;;4.76;100.00
9717;BME280;4897;43.570;27.832;2023-02-04T10:42:58;98354.19;;;4.53;100.00
9717;BME280;4897;43.570;27.832;2023-02-04T10:45:27;98350.69;;;4.76;100.00
9717;BME280;4897;43.570;27.832;2023-02-04T10:47:55;98349.69;;;4.42;100.00
9717;BME280;4897;43.570;27.832;2023-02-04T10:50:24;98341.69;;;4.55;100.00
9717;BME280;4897;43.570;27.832;2023-02-04T10:52:54;98317.59;;;4.47;100.00
9717;BME280;4897;43.570;27.832;2023-02-04T10:55:42;98335.50;;;4.67;100.00
9717;BME280;4897;43.570;27.832;2023-02-04T10:58:10;98341.53;;;4.45;100.00
9717;BME280;4897;43.570;27.832;2023-02-04T11:00:37;98325.44;;;4.48;100.00
9717;BME280;4897;43.570;27.832;2023-02-04T11:03:08;98352.50;;;4.52;100.00
9717;BME280;4897;43.570;27.832;2023-02-04T11:05:36;98341.03;;;4.64;100.00
9717;BME280;4897;43.570;27.832;2023-02-04T11:08:19;98326.25;;;4.49;100.00
9717;BME280;4897;43.570;27.832;2023-02-04T11:10:49;98326.94;;;4.40;100.00
9717;BME280;4897;43.570;27.832;2023-02-04T11:13:23;98331.53;;;4.49;100.00
9717;BME280;4897;43.570;27.832;2023-02-04T11:16:05;98323.34;;;4.41;100.00
9717;BME280;4897;43.570;27.832;2023-02-04T11:18:43;98328.28;;;4.69;100.00
9717;BME280;4897;43.570;27.832;2023-02-04T11:21:13;98325.66;;;4.45;100.00
9717;BME280;4897;43.570;27.832;2023-02-04T11:23:42;98323.56;;;4.38;100.00
9717;BME280;4897;43.570;27.832;2023-02-04T11:26:11;98327.16;;;4.37;100.00
9717;BME280;4897;43.570;27.832;2023-02-04T11:29:06;98309.00;;;4.20;100.00
9717;BME280;4897;43.570;27.832;2023-02-04T11:31:43;98289.84;;;3.92;100.00
9717;BME280;4897;43.570;27.832;2023-02-04T11:34:27;98330.19;;;4.20;100.00
9717;BME280;4897;43.570;27.832;2023-02-04T11:37:09;98325.69;;;4.33;100.00
9717;BME280;4897;43.570;27.832;2023-02-04T11:39:43;98325.75;;;4.44;100.00
9717;BME280;4897;43.570;27.832;2023-02-04T11:42:18;98267.75;;;3.93;100.00
9717;BME280;4897;43.570;27.832;2023-02-04T11:44:53;98276.13;;;3.87;100.00
9717;BME280;4897;43.570;27.832;2023-02-04T11:47:22;98328.72;;;4.16;100.00
9717;BME280;4897;43.570;27.832;2023-02-04T11:49:53;98328.09;;;4.12;100.00
9717;BME280;4897;43.570;27.832;2023-02-04T11:52:21;98324.72;;;4.10;100.00
9717;BME280;4897;43.570;27.832;2023-02-04T11:54:57;98290.81;;;3.91;100.00
9717;BME280;4897;43.570;27.832;2023-02-04T11:57:25;98325.56;;;4.11;100.00
9717;BME280;4897;43.570;27.832;2023-02-04T11:59:52;98331.06;;;4.07;100.00
9717;BME280;4897;43.570;27.832;2023-02-04T12:02:21;98329.16;;;4.10;100.00
9717;BME280;4897;43.570;27.832;2023-02-04T12:04:53;98306.13;;;3.99;100.00
9717;BME280;4897;43.570;27.832;2023-02-04T12:07:24;98320.59;;;4.06;100.00
9717;BME280;4897;43.570;27.832;2023-02-04T12:09:51;98331.81;;;4.10;100.00
9717;BME280;4897;43.570;27.832;2023-02-04T12:12:25;98317.94;;;4.19;100.00
9717;BME280;4897;43.570;27.832;2023-02-04T12:14:57;98300.34;;;4.18;100.00
9717;BME280;4897;43.570;27.832;2023-02-04T12:17:24;98315.91;;;4.46;100.00
9717;BME280;4897;43.570;27.832;2023-02-04T12:19:51;98321.06;;;4.24;100.00
9717;BME280;4897;43.570;27.832;2023-02-04T12:22:18;98324.44;;;4.26;100.00
9717;BME280;4897;43.570;27.832;2023-02-04T12:24:44;98315.34;;;4.30;100.00
9717;BME280;4897;43.570;27.832;2023-02-04T12:27:11;98321.66;;;4.40;100.00
9717;BME280;4897;43.570;27.832;2023-02-04T12:29:40;98328.41;;;4.44;100.00
9717;BME280;4897;43.570;27.832;2023-02-04T12:32:06;98159.94;;;3.50;100.00
9717;BME280;4897;43.570;27.832;2023-02-04T12:34:33;98303.69;;;4.32;100.00
9717;BME280;4897;43.570;27.832;2023-02-04T12:37:00;98326.94;;;4.40;100.00
9717;BME280;4897;43.570;27.832;2023-02-04T12:39:27;98325.69;;;4.33;100.00
9717;BME280;4897;43.570;27.832;2023-02-04T12:41:54;98324.34;;;4.27;100.00
9717;BME280;4897;43.570;27.832;2023-02-04T12:44:21;98333.50;;;4.34;100.00
9717;BME280;4897;43.570;27.832;2023-02-04T12:46:49;98325.19;;;4.28;100.00
9717;BME280;4897;43.570;27.832;2023-02-04T12:49:16;98334.38;;;4.35;100.00
9717;BME280;4897;43.570;27.832;2023-02-04T12:51:49;98332.47;;;4.37;100.00
9717;BME280;4897;43.570;27.832;2023-02-04T12:54:16;98273.38;;;3.89;100.00
9717;BME280;4897;43.570;27.832;2023-02-04T12:56:43;98347.09;;;4.30;100.00
9717;BME280;4897;43.570;27.832;2023-02-04T12:59:10;98344.59;;;4.16;100.00
9717;BME280;4897;43.570;27.832;2023-02-04T13:01:36;98328.34;;;3.96;100.00
9717;BME280;4897;43.570;27.832;2023-02-04T13:04:05;98359.00;;;4.12;100.00
9717;BME280;4897;43.570;27.832;2023-02-04T13:06:32;98274.91;;;3.55;100.00
9717;BME280;4897;43.570;27.832;2023-02-04T13:08:58;98352.03;;;4.11;100.00
9717;BME280;4897;43.570;27.832;2023-02-04T13:11:25;98359.41;;;4.18;100.00
9717;BME280;4897;43.570;27.832;2023-02-04T13:13:52;98352.44;;;4.17;100.00
9717;BME280;4897;43.570;27.832;2023-02-04T13:16:19;98353.50;;;4.15;100.00